Time;durP1;ratioP1;P1;durP2;ratioP2;P2;SDS_P1;SDS_P2;PMS_P1;PMS_P2;Temp;Humidity;BMP_temperature;BMP_pressure;BME280_temperature;BME280_humidity;BME280_pressure;Samples;Min_cycle;Max_cycle;Signal;HPM_P1;HPM_P2
2022/08/27 00:02:18;;;;;;;11.65;2.08;;;44.10;35.00;;;;;;5047525;28;20486;-64
2022/08/27 00:04:46;;;;;;;12.15;2.47;;;43.90;35.40;;;;;;5051886;28;20580;-63
2022/08/27 00:07:13;;;;;;;6.43;1.80;;;43.80;35.70;;;;;;5047592;28;20088;-61
2022/08/27 00:09:40;;;;;;;7.65;2.30;;;43.70;35.60;;;;;;5049595;28;20047;-63
2022/08/27 00:12:07;;;;;;;12.80;2.30;;;43.50;35.20;;;;;;5047450;28;20496;-63
2022/08/27 00:14:35;;;;;;;8.05;1.75;;;43.40;35.70;;;;;;5047784;28;20061;-62
2022/08/27 00:17:04;;;;;;;11.60;2.22;;;43.40;35.80;;;;;;5046235;28;20047;-65
2022/08/27 00:19:30;;;;;;;12.38;2.35;;;43.40;35.60;;;;;;5050435;28;20072;-63
2022/08/27 00:21:57;;;;;;;7.20;2.05;;;43.40;37.00;;;;;;5030820;28;20090;-64
2022/08/27 00:24:24;;;;;;;13.48;1.95;;;43.30;36.10;;;;;;5047538;28;20050;-64
2022/08/27 00:26:52;;;;;;;10.25;2.28;;;43.20;36.20;;;;;;5052006;28;20431;-64
2022/08/27 00:29:19;;;;;;;5.63;2.10;;;43.20;37.30;;;;;;5017532;28;20410;-63
2022/08/27 00:31:45;;;;;;;6.80;2.17;;;43.10;36.80;;;;;;5036396;28;20055;-63
2022/08/27 00:34:12;;;;;;;12.43;2.50;;;43.00;36.70;;;;;;5051649;28;20068;-64
2022/08/27 00:36:38;;;;;;;10.25;2.35;;;43.00;36.50;;;;;;5034676;28;20469;-63
2022/08/27 00:39:05;;;;;;;10.90;2.15;;;42.90;37.20;;;;;;5051248;28;20431;-61
2022/08/27 00:41:32;;;;;;;10.07;3.25;;;42.80;37.10;;;;;;5052347;28;20061;-63
2022/08/27 00:44:01;;;;;;;10.43;2.22;;;42.70;37.20;;;;;;5034744;28;20051;-65
2022/08/27 00:46:40;;;;;;;6.85;2.10;;;42.70;37.70;;;;;;5063916;28;20066;-63
2022/08/27 00:49:22;;;;;;;9.75;2.30;;;42.60;37.80;;;;;;5053368;28;20527;-63
2022/08/27 00:52:07;;;;;;;8.80;2.10;;;42.50;38.00;;;;;;5036606;28;20056;-63
2022/08/27 00:54:34;;;;;;;9.17;2.17;;;42.50;38.10;;;;;;5051671;28;20135;-63
2022/08/27 00:57:02;;;;;;;10.13;1.88;;;42.40;37.40;;;;;;5051972;28;20053;-63
2022/08/27 00:59:29;;;;;;;10.68;1.70;;;42.30;37.80;;;;;;5051184;28;20072;-63
2022/08/27 01:04:43;;;;;;;13.60;1.92;;;42.10;37.40;;;;;;5051484;28;20080;-62
2022/08/27 01:07:10;;;;;;;12.80;1.70;;;42.00;38.50;;;;;;5050753;28;20139;-63
2022/08/27 01:09:37;;;;;;;11.25;1.83;;;41.90;38.70;;;;;;5051480;28;20077;-63
2022/08/27 01:12:04;;;;;;;14.20;1.80;;;41.80;39.00;;;;;;5051863;28;20144;-63
2022/08/27 01:14:31;;;;;;;8.07;1.73;;;41.70;39.50;;;;;;5036763;28;20089;-62
2022/08/27 01:17:00;;;;;;;10.68;1.98;;;41.70;39.90;;;;;;5051072;28;20149;-63
2022/08/27 01:19:49;;;;;;;16.90;2.80;;;41.60;40.00;;;;;;5049658;28;20077;-65
2022/08/27 01:22:32;;;;;;;10.02;2.05;;;41.50;41.30;;;;;;5050316;28;20092;-61
2022/08/27 01:25:04;;;;;;;18.35;3.83;;;41.40;40.90;;;;;;5051687;28;20054;-64
2022/08/27 01:27:31;;;;;;;11.75;1.80;;;41.30;41.20;;;;;;5048850;28;20115;-62
2022/08/27 01:29:58;;;;;;;9.10;1.88;;;41.30;41.30;;;;;;5050820;28;20057;-62
2022/08/27 01:32:28;;;;;;;15.27;2.05;;;41.20;41.30;;;;;;5051028;28;20055;-62
2022/08/27 01:34:56;;;;;;;17.73;2.30;;;41.10;41.90;;;;;;5052233;28;20058;-62
2022/08/27 01:37:24;;;;;;;9.15;1.42;;;41.10;42.40;;;;;;5031889;28;20076;-63
2022/08/27 01:39:53;;;;;;;16.88;2.03;;;40.90;42.40;;;;;;5032251;28;20144;-62
2022/08/27 01:42:24;;;;;;;8.02;1.80;;;40.90;42.60;;;;;;5050696;28;20113;-62
2022/08/27 01:44:59;;;;;;;10.25;1.85;;;40.70;42.70;;;;;;5049558;28;20156;-61
2022/08/27 01:47:27;;;;;;;16.17;1.90;;;40.60;43.70;;;;;;5047870;28;20070;-63
2022/08/27 01:49:54;;;;;;;16.55;2.28;;;40.50;43.20;;;;;;5049378;28;20071;-61
2022/08/27 01:52:24;;;;;;;18.35;2.50;;;40.40;43.40;;;;;;5036402;28;20589;-61
2022/08/27 01:54:51;;;;;;;15.40;2.67;;;40.30;43.70;;;;;;5050016;28;20201;-61
2022/08/27 01:57:19;;;;;;;20.52;2.20;;;40.30;43.90;;;;;;5050331;28;20398;-62
2022/08/27 01:59:46;;;;;;;16.70;2.88;;;40.20;44.10;;;;;;5047743;28;20063;-62
2022/08/27 02:02:15;;;;;;;15.25;3.00;;;40.10;44.30;;;;;;5050751;28;20140;-65
2022/08/27 02:04:42;;;;;;;28.08;2.55;;;40.00;44.50;;;;;;5050311;28;20062;-62
2022/08/27 02:07:09;;;;;;;17.23;1.95;;;39.90;44.80;;;;;;5049579;28;20071;-62
2022/08/27 02:09:36;;;;;;;22.67;2.70;;;39.80;44.90;;;;;;5049392;28;20098;-63
2022/08/27 02:12:04;;;;;;;11.50;1.88;;;39.80;44.90;;;;;;5050650;28;20070;-63
2022/08/27 02:14:30;;;;;;;18.13;2.80;;;39.70;45.10;;;;;;5033412;28;20155;-61
2022/08/27 02:16:57;;;;;;;23.20;2.92;;;39.60;45.20;;;;;;5031658;28;20541;-63
2022/08/27 02:19:23;;;;;;;22.55;3.20;;;39.50;45.20;;;;;;5050517;28;20119;-61
2022/08/27 02:21:50;;;;;;;17.15;2.72;;;39.50;45.40;;;;;;5049180;28;20106;-63
2022/08/27 02:24:16;;;;;;;14.60;2.20;;;39.40;45.60;;;;;;5049923;28;20083;-63
2022/08/27 02:26:42;;;;;;;25.55;2.90;;;39.30;45.40;;;;;;5032569;28;20073;-63
2022/08/27 02:29:09;;;;;;;22.15;2.30;;;39.30;45.60;;;;;;5050644;28;20114;-63
2022/08/27 02:31:35;;;;;;;11.77;1.88;;;39.20;45.70;;;;;;5049332;28;20079;-63
2022/08/27 02:34:02;;;;;;;19.30;2.13;;;39.20;45.60;;;;;;5050437;28;20080;-63
2022/08/27 02:36:29;;;;;;;22.23;2.67;;;39.10;45.60;;;;;;5048600;28;20081;-63
2022/08/27 02:39:04;;;;;;;23.05;3.28;;;39.10;45.80;;;;;;5050540;28;20075;-59
2022/08/27 02:41:30;;;;;;;22.85;2.88;;;39.00;45.70;;;;;;5049699;28;20137;-63
2022/08/27 02:43:57;;;;;;;30.40;2.50;;;39.00;45.80;;;;;;5050335;28;20072;-62
2022/08/27 02:46:24;;;;;;;10.15;1.70;;;38.90;45.60;;;;;;5048357;28;20496;-63
2022/08/27 02:49:03;;;;;;;17.02;2.03;;;38.90;45.80;;;;;;5045661;28;20071;-62
2022/08/27 02:51:30;;;;;;;27.67;2.47;;;38.80;45.70;;;;;;5048163;28;20094;-63
2022/08/27 02:53:56;;;;;;;13.98;2.20;;;38.80;45.70;;;;;;5048645;28;20391;-63
2022/08/27 02:56:23;;;;;;;16.65;2.42;;;38.80;45.70;;;;;;5048771;28;20140;-62
2022/08/27 02:58:49;;;;;;;16.65;2.50;;;38.70;45.80;;;;;;5048784;28;20526;-63
2022/08/27 03:01:16;;;;;;;15.65;2.20;;;38.70;46.10;;;;;;5049399;28;20071;-63
2022/08/27 03:03:42;;;;;;;21.92;2.67;;;38.70;46.10;;;;;;5050410;28;20102;-60
2022/08/27 03:06:08;;;;;;;24.13;2.30;;;38.70;46.20;;;;;;5048930;28;20414;-63
2022/08/27 03:08:35;;;;;;;15.75;3.05;;;38.60;46.20;;;;;;5049250;28;20106;-61
2022/08/27 03:11:01;;;;;;;12.10;2.80;;;38.60;46.50;;;;;;5049149;28;20070;-63
2022/08/27 03:13:28;;;;;;;16.40;2.03;;;38.60;46.60;;;;;;5051122;28;20461;-63
2022/08/27 03:15:54;;;;;;;25.27;2.90;;;38.60;46.70;;;;;;5049039;28;20069;-61
2022/08/27 03:18:21;;;;;;;25.02;2.60;;;38.50;47.00;;;;;;5048162;28;20096;-61
2022/08/27 03:20:53;;;;;;;21.25;2.65;;;38.50;47.20;;;;;;5048796;28;20612;-61
2022/08/27 03:23:23;;;;;;;29.08;3.35;;;38.40;47.20;;;;;;5049095;28;20591;-58
2022/08/27 03:25:53;;;;;;;28.25;2.80;;;38.40;47.30;;;;;;5048791;28;20114;-61
2022/08/27 03:28:21;;;;;;;32.50;3.05;;;38.40;47.40;;;;;;5046168;28;20526;-61
2022/08/27 03:31:00;;;;;;;18.58;2.65;;;38.30;47.40;;;;;;5048536;28;20522;-62
2022/08/27 03:33:32;;;;;;;28.70;3.10;;;38.30;47.50;;;;;;5049677;28;20234;-61
2022/08/27 03:35:58;;;;;;;11.93;2.53;;;38.20;47.50;;;;;;5048280;28;20068;-61
2022/08/27 03:38:26;;;;;;;14.20;2.55;;;38.20;47.70;;;;;;5014026;28;20084;-62
2022/08/27 03:40:53;;;;;;;14.23;2.42;;;38.20;47.70;;;;;;5045592;28;20072;-63
2022/08/27 03:43:21;;;;;;;13.95;3.20;;;38.10;47.60;;;;;;5047909;28;20069;-62
2022/08/27 03:45:49;;;;;;;20.23;2.50;;;38.10;47.80;;;;;;5063145;28;20068;-64
2022/08/27 03:48:17;;;;;;;17.92;3.35;;;38.10;48.00;;;;;;5047818;28;20111;-63
2022/08/27 03:50:45;;;;;;;16.25;2.92;;;38.10;48.20;;;;;;5045748;28;20071;-64
2022/08/27 03:53:13;;;;;;;16.17;3.35;;;38.00;48.50;;;;;;5033297;28;20092;-62
2022/08/27 03:55:43;;;;;;;18.73;3.30;;;38.00;48.90;;;;;;5047520;28;20072;-62
2022/08/27 03:58:10;;;;;;;16.52;3.03;;;38.00;48.70;;;;;;5047287;28;20084;-63
2022/08/27 04:00:38;;;;;;;15.20;2.40;;;37.90;48.70;;;;;;5046807;28;20077;-63
2022/08/27 04:03:05;;;;;;;12.50;2.65;;;37.80;49.20;;;;;;5030641;28;20083;-62
2022/08/27 04:05:33;;;;;;;12.13;3.17;;;37.80;49.10;;;;;;5049381;28;20446;-63
2022/08/27 04:08:00;;;;;;;18.63;3.22;;;37.70;48.70;;;;;;5047322;28;20538;-63
2022/08/27 04:10:26;;;;;;;20.35;3.75;;;37.70;48.70;;;;;;5062872;28;20092;-62
2022/08/27 04:12:53;;;;;;;17.02;3.80;;;37.70;48.50;;;;;;5049704;28;20146;-62
2022/08/27 04:15:19;;;;;;;18.63;3.75;;;37.70;48.90;;;;;;5049993;28;20072;-63
2022/08/27 04:17:49;;;;;;;15.40;3.35;;;37.70;49.00;;;;;;5030307;28;20120;-65
2022/08/27 04:20:15;;;;;;;14.80;3.42;;;37.70;49.10;;;;;;5048686;28;20105;-64
2022/08/27 04:22:41;;;;;;;21.73;3.25;;;37.60;49.50;;;;;;5048144;28;20070;-63
2022/08/27 04:25:08;;;;;;;19.63;3.85;;;37.60;49.80;;;;;;5029448;28;20100;-62
2022/08/27 04:27:35;;;;;;;16.33;3.20;;;37.60;49.80;;;;;;5049145;28;20104;-63
2022/08/27 04:30:02;;;;;;;14.15;2.80;;;37.50;49.60;;;;;;5031021;28;20575;-63
2022/08/27 04:32:29;;;;;;;20.00;2.90;;;37.50;49.40;;;;;;5048159;28;20547;-63
2022/08/27 04:34:57;;;;;;;17.83;2.97;;;37.40;49.60;;;;;;5032113;28;20085;-63
2022/08/27 04:37:25;;;;;;;18.17;2.78;;;37.40;49.30;;;;;;5063624;28;20089;-63
2022/08/27 04:39:52;;;;;;;18.35;3.20;;;37.40;49.20;;;;;;5048118;28;20073;-64
2022/08/27 04:42:20;;;;;;;19.20;2.95;;;37.40;49.20;;;;;;5047299;28;20072;-65
2022/08/27 04:44:46;;;;;;;17.13;3.33;;;37.40;49.30;;;;;;5047666;28;20081;-62
2022/08/27 04:47:14;;;;;;;9.73;2.45;;;37.40;49.60;;;;;;5030969;28;20087;-63
2022/08/27 04:49:40;;;;;;;20.27;3.13;;;37.30;50.20;;;;;;5046404;28;20089;-62
2022/08/27 04:52:07;;;;;;;10.98;3.13;;;37.30;50.40;;;;;;5046789;28;20431;-62
2022/08/27 04:54:34;;;;;;;26.40;3.00;;;37.30;50.30;;;;;;5047007;28;20610;-62
2022/08/27 04:57:02;;;;;;;15.55;3.10;;;37.10;50.40;;;;;;5047470;28;20098;-63
2022/08/27 04:59:30;;;;;;;19.17;3.38;;;37.10;50.40;;;;;;5048668;28;20539;-63
2022/08/27 05:01:56;;;;;;;12.85;3.13;;;37.10;50.40;;;;;;5047262;28;20092;-62
2022/08/27 05:04:22;;;;;;;19.10;3.63;;;37.10;50.70;;;;;;5048305;28;20069;-63
2022/08/27 05:06:49;;;;;;;15.15;3.40;;;37.10;50.90;;;;;;5029777;28;20096;-63
2022/08/27 05:09:17;;;;;;;20.42;3.67;;;37.00;51.00;;;;;;5046896;28;20223;-62
2022/08/27 05:11:43;;;;;;;25.02;3.38;;;37.00;51.40;;;;;;5047982;28;20076;-64
2022/08/27 05:14:12;;;;;;;15.48;3.15;;;37.00;50.80;;;;;;5052107;28;20098;-63
2022/08/27 05:16:39;;;;;;;22.55;2.97;;;36.90;50.80;;;;;;5032055;28;20139;-63
2022/08/27 05:19:08;;;;;;;11.57;2.80;;;36.90;49.90;;;;;;5033093;28;20179;-65
2022/08/27 05:21:37;;;;;;;8.43;2.70;;;36.80;48.00;;;;;;5050719;28;20120;-63
2022/08/27 05:24:06;;;;;;;8.60;2.65;;;36.80;46.60;;;;;;5033919;28;20155;-63
2022/08/27 05:26:34;;;;;;;13.68;3.08;;;36.70;45.30;;;;;;5033935;28;20139;-63
2022/08/27 05:29:02;;;;;;;14.52;3.33;;;36.70;44.30;;;;;;5050258;28;20132;-63
2022/08/27 05:31:29;;;;;;;19.13;2.53;;;36.70;44.50;;;;;;5050014;28;20068;-63
2022/08/27 05:33:56;;;;;;;13.98;2.63;;;36.60;44.60;;;;;;5051480;28;20104;-63
2022/08/27 05:36:27;;;;;;;10.55;2.38;;;36.60;43.40;;;;;;5049430;28;20072;-62
2022/08/27 05:38:55;;;;;;;8.25;2.63;;;36.60;43.90;;;;;;5050311;28;20556;-63
2022/08/27 05:41:26;;;;;;;11.68;3.00;;;36.60;43.90;;;;;;5051140;28;20077;-63
2022/08/27 05:43:54;;;;;;;19.15;4.90;;;36.50;44.10;;;;;;5048341;28;20077;-61
2022/08/27 05:46:22;;;;;;;13.60;2.67;;;36.50;43.60;;;;;;5049878;28;20069;-63
2022/08/27 05:48:50;;;;;;;8.32;2.97;;;36.50;42.10;;;;;;5054217;28;20130;-63
2022/08/27 05:51:23;;;;;;;5.80;2.08;;;36.50;41.60;;;;;;5062354;28;20076;-63
2022/08/27 05:53:49;;;;;;;20.58;3.10;;;36.50;42.40;;;;;;5048122;28;20085;-63
2022/08/27 05:56:22;;;;;;;12.25;3.00;;;36.50;42.20;;;;;;5050113;28;20557;-64
2022/08/27 06:01:42;;;;;;;18.20;3.20;;;36.40;42.40;;;;;;5055998;28;20114;-64
2022/08/27 06:04:08;;;;;;;19.20;3.33;;;36.40;42.90;;;;;;5036623;28;20077;-65
2022/08/27 06:06:40;;;;;;;26.77;10.88;;;36.30;42.80;;;;;;5049697;28;20096;-63
2022/08/27 06:09:07;;;;;;;15.32;5.70;;;36.30;43.70;;;;;;5049329;28;20465;-62
2022/08/27 06:11:35;;;;;;;13.52;3.00;;;36.30;43.70;;;;;;5049420;28;20082;-62
2022/08/27 06:14:01;;;;;;;17.45;3.10;;;36.20;43.70;;;;;;5053019;28;20527;-62
2022/08/27 06:16:28;;;;;;;13.65;3.95;;;36.20;43.50;;;;;;5016308;28;20551;-63
2022/08/27 06:18:58;;;;;;;18.83;4.55;;;36.10;43.60;;;;;;5048899;28;20093;-67
2022/08/27 06:21:25;;;;;;;24.08;4.40;;;36.10;43.60;;;;;;5050192;28;20117;-63
2022/08/27 06:23:53;;;;;;;20.05;4.60;;;36.10;44.20;;;;;;5031950;28;20096;-61
2022/08/27 06:26:22;;;;;;;14.32;5.03;;;36.10;44.30;;;;;;5049990;28;20076;-62
2022/08/27 06:28:49;;;;;;;20.70;4.88;;;36.20;44.10;;;;;;5049646;28;20096;-61
2022/08/27 06:31:21;;;;;;;20.02;5.20;;;36.20;44.80;;;;;;5050350;28;20105;-63
2022/08/27 06:33:50;;;;;;;17.48;4.38;;;36.20;45.50;;;;;;5054029;28;20088;-60
2022/08/27 06:36:21;;;;;;;19.13;4.00;;;36.20;45.20;;;;;;5034414;28;20073;-60
2022/08/27 06:38:49;;;;;;;13.85;3.58;;;36.20;46.90;;;;;;5031012;28;20543;-61
2022/08/27 06:41:18;;;;;;;14.60;3.72;;;36.20;47.50;;;;;;5050604;28;20072;-62
2022/08/27 06:43:45;;;;;;;21.75;4.60;;;36.10;48.10;;;;;;5050737;28;20126;-61
2022/08/27 06:46:15;;;;;;;17.73;3.78;;;36.10;49.10;;;;;;5046998;28;20084;-62
2022/08/27 06:48:46;;;;;;;28.83;4.20;;;36.00;50.90;;;;;;5048363;28;20082;-60
2022/08/27 06:51:35;;;;;;;23.67;4.38;;;36.10;52.60;;;;;;5048081;28;20072;-62
2022/08/27 06:54:04;;;;;;;18.50;4.07;;;36.00;52.80;;;;;;5046092;28;21241;-61
2022/08/27 06:56:32;;;;;;;19.35;4.13;;;36.00;53.20;;;;;;5048077;28;20206;-61
2022/08/27 06:59:02;;;;;;;13.98;3.20;;;36.00;53.70;;;;;;5049488;28;20135;-61
2022/08/27 07:01:35;;;;;;;16.30;3.72;;;36.00;53.70;;;;;;5049822;28;20085;-60
2022/08/27 07:04:05;;;;;;;14.82;3.58;;;35.90;54.30;;;;;;5033293;28;20543;-61
2022/08/27 07:06:32;;;;;;;15.18;3.45;;;36.00;54.10;;;;;;5048429;28;20104;-62
2022/08/27 07:08:59;;;;;;;20.63;4.43;;;35.90;53.80;;;;;;5031760;28;20674;-62
2022/08/27 07:11:27;;;;;;;13.93;3.30;;;35.90;54.40;;;;;;5049515;28;20184;-61
2022/08/27 07:13:55;;;;;;;14.82;4.22;;;35.80;54.20;;;;;;5050210;28;20137;-61
2022/08/27 07:16:24;;;;;;;15.40;3.85;;;35.80;54.10;;;;;;5030843;28;20111;-61
2022/08/27 07:18:53;;;;;;;18.08;4.57;;;35.80;54.50;;;;;;5048642;28;20117;-62
2022/08/27 07:21:20;;;;;;;17.65;3.88;;;35.80;53.90;;;;;;5031732;28;20467;-61
2022/08/27 07:23:47;;;;;;;18.23;4.10;;;35.70;53.60;;;;;;5048712;28;20522;-61
2022/08/27 07:26:15;;;;;;;19.05;4.00;;;35.70;54.50;;;;;;5048406;28;20093;-61
2022/08/27 07:28:43;;;;;;;19.98;3.60;;;35.60;54.70;;;;;;5049933;28;20165;-61
2022/08/27 07:31:12;;;;;;;15.95;3.58;;;35.60;54.30;;;;;;5048719;28;20161;-60
2022/08/27 07:33:39;;;;;;;20.20;3.58;;;35.50;54.50;;;;;;5049576;28;20566;-60
2022/08/27 07:36:06;;;;;;;11.20;2.80;;;35.40;53.60;;;;;;5031772;28;20146;-60
2022/08/27 07:38:34;;;;;;;16.58;3.05;;;35.30;50.10;;;;;;5033031;28;20076;-61
2022/08/27 07:41:05;;;;;;;12.85;2.40;;;35.30;48.80;;;;;;5046801;28;20065;-60
2022/08/27 07:46:16;;;;;;;11.35;2.65;;;35.30;44.80;;;;;;5047085;28;20183;-60
2022/08/27 07:48:42;;;;;;;7.65;2.20;;;35.20;43.70;;;;;;5048113;28;20072;-63
2022/08/27 07:51:18;;;;;;;10.95;2.72;;;35.20;44.10;;;;;;5048016;28;20075;-60
2022/08/27 07:53:46;;;;;;;11.55;2.80;;;35.10;44.30;;;;;;5045722;28;20097;-60
2022/08/27 07:56:12;;;;;;;9.23;2.75;;;35.00;45.00;;;;;;5047091;28;20186;-63
2022/08/27 07:58:40;;;;;;;9.32;2.40;;;35.00;45.30;;;;;;5047654;28;20097;-60
2022/08/27 08:01:07;;;;;;;11.88;2.35;;;35.00;45.50;;;;;;5028937;28;20073;-60
2022/08/27 08:03:34;;;;;;;8.63;2.42;;;35.00;45.20;;;;;;5048220;28;20084;-64
2022/08/27 08:06:06;;;;;;;14.25;2.30;;;34.90;45.40;;;;;;5049119;28;20527;-59
2022/08/27 08:08:38;;;;;;;13.63;2.63;;;34.90;44.50;;;;;;5049154;28;20078;-60
2022/08/27 08:11:06;;;;;;;8.30;2.67;;;34.90;44.20;;;;;;5047243;28;20077;-62
2022/08/27 08:13:33;;;;;;;15.82;2.92;;;34.70;43.40;;;;;;5053361;28;20430;-61
2022/08/27 08:15:59;;;;;;;10.13;2.88;;;34.80;44.30;;;;;;5047175;28;20068;-61
2022/08/27 08:18:27;;;;;;;9.20;2.10;;;34.70;43.10;;;;;;5045782;28;20093;-61
2022/08/27 08:21:03;;;;;;;6.57;2.13;;;34.60;43.40;;;;;;5047034;28;20142;-63
2022/08/27 08:23:31;;;;;;;6.18;2.08;;;34.60;43.60;;;;;;5048244;28;20077;-60
2022/08/27 08:25:58;;;;;;;10.70;2.53;;;34.60;44.30;;;;;;5047342;28;20748;-61
2022/08/27 08:28:26;;;;;;;6.18;1.98;;;34.60;44.30;;;;;;5047426;28;20074;-61
2022/08/27 08:30:53;;;;;;;10.13;2.13;;;34.60;44.00;;;;;;5047709;28;20610;-61
2022/08/27 08:33:20;;;;;;;9.50;2.22;;;34.60;43.70;;;;;;5049434;28;20099;-61
2022/08/27 08:35:50;;;;;;;7.93;2.00;;;34.50;43.60;;;;;;5048664;28;20068;-61
2022/08/27 08:38:18;;;;;;;10.45;2.10;;;34.50;44.30;;;;;;5048233;28;20072;-61
2022/08/27 08:40:54;;;;;;;7.47;2.15;;;34.40;43.00;;;;;;5047027;28;20152;-61
2022/08/27 08:43:29;;;;;;;7.60;2.00;;;34.40;43.30;;;;;;5048046;28;20072;-60
2022/08/27 08:46:06;;;;;;;8.20;2.42;;;34.40;44.00;;;;;;5047482;28;20106;-61
2022/08/27 08:48:34;;;;;;;4.20;1.95;;;34.30;44.00;;;;;;5050958;28;20084;-62
2022/08/27 08:51:06;;;;;;;11.85;2.30;;;34.30;43.30;;;;;;5051291;28;20081;-62
2022/08/27 08:53:48;;;;;;;6.80;1.60;;;34.30;43.60;;;;;;5050484;28;20601;-62
2022/08/27 08:56:40;;;;;;;9.80;1.98;;;34.30;43.40;;;;;;5049451;28;20751;-61
2022/08/27 08:59:37;;;;;;;5.50;2.05;;;34.30;43.70;;;;;;5063768;28;20097;-61
2022/08/27 09:02:09;;;;;;;10.73;2.28;;;34.30;43.80;;;;;;5052680;28;20167;-60
2022/08/27 09:04:36;;;;;;;11.98;2.40;;;34.30;43.30;;;;;;5051572;28;20093;-61
2022/08/27 09:07:07;;;;;;;10.45;2.03;;;34.30;43.90;;;;;;5052030;28;20102;-60
2022/08/27 09:09:51;;;;;;;11.80;2.30;;;34.30;43.60;;;;;;5050615;28;20210;-61
2022/08/27 09:12:23;;;;;;;11.13;2.20;;;34.30;43.70;;;;;;5051982;28;20553;-60
2022/08/27 09:14:52;;;;;;;9.48;2.33;;;34.20;43.50;;;;;;5050667;28;20092;-60
2022/08/27 09:17:19;;;;;;;12.98;2.03;;;34.10;43.70;;;;;;5050398;28;20093;-60
2022/08/27 09:19:45;;;;;;;8.43;2.20;;;34.10;44.20;;;;;;5050035;28;20064;-62
2022/08/27 09:22:27;;;;;;;11.52;2.47;;;34.00;44.30;;;;;;5051087;28;20478;-63
2022/08/27 09:25:20;;;;;;;8.73;2.10;;;34.00;43.90;;;;;;5051083;28;20073;-63
2022/08/27 09:27:50;;;;;;;9.55;1.80;;;34.00;44.60;;;;;;5049488;28;20097;-61
2022/08/27 09:30:22;;;;;;;4.88;1.70;;;34.00;44.60;;;;;;5050362;28;20169;-62
2022/08/27 09:32:57;;;;;;;10.45;1.98;;;33.90;44.40;;;;;;5051198;28;20122;-62
2022/08/27 09:35:26;;;;;;;5.57;1.77;;;34.00;44.00;;;;;;5050990;28;20092;-62
2022/08/27 09:37:55;;;;;;;6.13;1.80;;;33.90;44.40;;;;;;5049903;28;20134;-62
2022/08/27 09:40:28;;;;;;;4.20;1.65;;;33.90;44.20;;;;;;5065513;28;20073;-62
2022/08/27 09:43:16;;;;;;;10.93;1.85;;;33.90;45.30;;;;;;5050554;28;20433;-62
2022/08/27 09:45:51;;;;;;;7.00;1.80;;;33.80;44.40;;;;;;5049048;28;20159;-61
2022/08/27 09:48:22;;;;;;;6.47;1.65;;;33.80;44.50;;;;;;5527737;22;20121;-62
2022/08/27 09:50:54;;;;;;;8.38;1.77;;;33.70;44.10;;;;;;5063382;28;20081;-61
2022/08/27 09:53:35;;;;;;;5.88;1.83;;;33.80;44.00;;;;;;5085520;28;20093;-61
2022/08/27 09:56:07;;;;;;;11.52;1.90;;;33.80;44.50;;;;;;5084077;28;20121;-61
2022/08/27 09:58:50;;;;;;;7.80;1.85;;;33.80;44.70;;;;;;5063140;28;20176;-61
2022/08/27 10:01:24;;;;;;;9.95;1.90;;;33.70;44.50;;;;;;5085753;28;20441;-61
2022/08/27 10:04:14;;;;;;;10.38;1.80;;;33.70;45.10;;;;;;5069358;28;20520;-60
2022/08/27 10:06:49;;;;;;;10.00;1.80;;;33.70;44.70;;;;;;5052941;28;20139;-61
2022/08/27 10:09:22;;;;;;;12.38;1.77;;;33.60;44.30;;;;;;5069236;28;20073;-62
2022/08/27 10:12:19;;;;;;;8.27;2.03;;;33.60;44.40;;;;;;5085299;28;20081;-59
2022/08/27 10:14:48;;;;;;;;;;;33.60;44.70;;;;;;5084889;28;20096;-60
2022/08/27 10:17:20;;;;;;;4.28;1.80;;;33.50;44.50;;;;;;5068932;28;19961;-59
2022/08/27 10:20:02;;;;;;;7.00;1.75;;;33.40;45.10;;;;;;5084786;28;20101;-61
2022/08/27 10:23:04;;;;;;;11.18;2.03;;;33.40;45.70;;;;;;5086340;28;20159;-61
2022/08/27 10:25:46;;;;;;;7.50;1.83;;;33.30;45.70;;;;;;5068367;28;20076;-62
2022/08/27 10:28:50;;;;;;;4.93;1.83;;;33.30;45.60;;;;;;5068084;28;20150;-61
2022/08/27 10:31:16;;;;;;;12.43;1.83;;;33.30;46.40;;;;;;5056031;28;20530;-61
2022/08/27 10:34:02;;;;;;;12.82;2.47;;;33.30;46.90;;;;;;5067645;28;20084;-62
2022/08/27 10:36:54;;;;;;;6.53;2.10;;;33.20;46.10;;;;;;5068840;28;20081;-63
2022/08/27 10:39:39;;;;;;;7.60;2.10;;;33.20;46.00;;;;;;5068359;28;20073;-61
2022/08/27 10:42:09;;;;;;;6.20;1.80;;;33.10;46.00;;;;;;5068334;28;20073;-63
2022/08/27 10:44:46;;;;;;;6.78;1.90;;;33.10;46.20;;;;;;5068578;28;20083;-61
2022/08/27 10:47:30;;;;;;;8.20;2.03;;;33.00;46.20;;;;;;5084163;28;20503;-61
2022/08/27 10:49:59;;;;;;;11.10;2.25;;;33.00;46.80;;;;;;5063755;28;20108;-61
2022/08/27 10:52:37;;;;;;;6.57;1.73;;;32.90;46.10;;;;;;5064183;28;20108;-60
2022/08/27 10:55:22;;;;;;;7.80;2.20;;;33.00;46.70;;;;;;5049971;28;20092;-62
2022/08/27 10:58:07;;;;;;;9.70;2.00;;;32.90;46.50;;;;;;5031862;28;20084;-63
2022/08/27 11:01:01;;;;;;;10.02;2.05;;;32.80;46.60;;;;;;5048320;28;20082;-61
2022/08/27 11:03:59;;;;;;;6.40;2.20;;;32.90;46.60;;;;;;5065029;28;20523;-61
2022/08/27 11:06:48;;;;;;;8.52;2.13;;;32.80;47.50;;;;;;5035976;28;20115;-61
2022/08/27 11:09:22;;;;;;;14.00;2.22;;;32.80;47.10;;;;;;5046136;28;20077;-61
2022/08/27 11:11:54;;;;;;;12.45;2.70;;;32.80;46.90;;;;;;5048355;28;20077;-61
2022/08/27 11:14:32;;;;;;;10.25;2.33;;;32.70;47.30;;;;;;5031752;28;20543;-60
2022/08/27 11:17:13;;;;;;;5.05;2.58;;;32.70;48.50;;;;;;5047828;28;20523;-62
2022/08/27 11:19:45;;;;;;;15.35;3.17;;;32.70;49.10;;;;;;5031619;28;20064;-62
2022/08/27 11:22:53;;;;;;;8.43;3.33;;;32.60;48.70;;;;;;5048498;28;20095;-61
2022/08/27 11:25:45;;;;;;;8.18;3.22;;;32.60;48.80;;;;;;5031291;28;20093;-62
2022/08/27 11:28:13;;;;;;;11.02;3.47;;;32.60;49.20;;;;;;5048001;28;20073;-63
2022/08/27 11:30:57;;;;;;;8.70;2.85;;;32.60;48.10;;;;;;5047848;28;20210;-61
2022/08/27 11:33:46;;;;;;;10.48;2.65;;;32.50;48.20;;;;;;5048228;28;20085;-61
2022/08/27 11:36:28;;;;;;;11.13;2.25;;;32.50;50.90;;;;;;5031818;28;20610;-65
2022/08/27 11:39:02;;;;;;;8.82;2.50;;;32.50;52.30;;;;;;5047399;28;20127;-61
2022/08/27 11:41:54;;;;;;;12.07;2.50;;;32.50;52.80;;;;;;5031481;28;20118;-61
2022/08/27 11:44:23;;;;;;;7.88;2.50;;;32.50;54.60;;;;;;5049029;28;20089;-63
2022/08/27 11:47:14;;;;;;;8.95;2.78;;;32.50;57.80;;;;;;5047582;28;20131;-62
2022/08/27 11:49:50;;;;;;;11.40;2.90;;;32.50;58.20;;;;;;5048863;28;20183;-62
2022/08/27 11:52:30;;;;;;;13.73;3.40;;;32.40;58.50;;;;;;5046461;28;20077;-61
2022/08/27 11:55:20;;;;;;;14.88;3.65;;;32.40;58.80;;;;;;5030995;28;20085;-64
2022/08/27 11:57:49;;;;;;;9.07;3.28;;;32.40;59.20;;;;;;5035710;28;20093;-60
2022/08/27 12:00:27;;;;;;;11.90;3.63;;;32.40;58.90;;;;;;5047429;28;20073;-62
2022/08/27 12:03:03;;;;;;;11.52;3.83;;;32.40;59.30;;;;;;5047191;28;20089;-63
2022/08/27 12:05:56;;;;;;;18.50;3.67;;;32.40;59.70;;;;;;5048279;28;20096;-60
2022/08/27 12:08:22;;;;;;;10.20;3.30;;;32.30;59.30;;;;;;5047825;28;20070;-62
2022/08/27 12:11:15;;;;;;;14.88;3.60;;;32.30;59.60;;;;;;5047551;28;20069;-62
2022/08/27 12:14:11;;;;;;;16.35;3.30;;;32.30;60.80;;;;;;5047776;28;20569;-62
2022/08/27 12:17:03;;;;;;;21.48;4.13;;;32.20;60.80;;;;;;5025843;28;20442;-62
2022/08/27 12:19:52;;;;;;;18.50;2.90;;;32.20;61.30;;;;;;5048130;28;20077;-62
2022/08/27 12:22:24;;;;;;;10.77;3.25;;;32.10;61.40;;;;;;5051890;28;20082;-62
2022/08/27 12:24:56;;;;;;;12.15;3.33;;;32.20;61.00;;;;;;5051177;28;20083;-62
2022/08/27 12:27:33;;;;;;;16.40;3.58;;;32.20;60.50;;;;;;5049780;28;20068;-63
2022/08/27 12:29:59;;;;;;;13.57;3.53;;;32.10;61.80;;;;;;5051339;28;20083;-63
2022/08/27 12:32:45;;;;;;;10.20;3.22;;;32.00;61.50;;;;;;5052300;28;20077;-64
2022/08/27 12:35:16;;;;;;;15.07;2.65;;;32.00;60.90;;;;;;5067782;28;20092;-62
2022/08/27 12:37:49;;;;;;;12.45;3.13;;;32.00;61.00;;;;;;5050760;28;20218;-62
2022/08/27 12:40:37;;;;;;;11.63;3.28;;;32.10;62.00;;;;;;5034009;28;20089;-64
2022/08/27 12:43:27;;;;;;;13.98;3.42;;;32.00;61.30;;;;;;5068706;28;20065;-62
2022/08/27 12:46:05;;;;;;;19.90;4.38;;;32.00;62.10;;;;;;5051231;28;20117;-63
2022/08/27 12:48:41;;;;;;;;;;;31.90;62.60;;;;;;5056291;28;20561;-62
2022/08/27 12:51:30;;;;;;;18.42;5.45;;;31.80;61.80;;;;;;5055894;28;19965;-62
2022/08/27 12:54:05;;;;;;;19.08;5.90;;;31.80;61.20;;;;;;5048602;28;20113;-62
2022/08/27 12:56:53;;;;;;;18.03;6.50;;;31.80;61.30;;;;;;5050476;28;20423;-62
2022/08/27 12:59:34;;;;;;;19.90;5.97;;;31.80;61.10;;;;;;5052106;28;20080;-60
2022/08/27 13:02:39;;;;;;;14.75;5.13;;;31.80;60.30;;;;;;5066624;28;20073;-60
2022/08/27 13:05:08;;;;;;;22.35;4.65;;;31.80;58.90;;;;;;5051968;28;20411;-62
2022/08/27 13:07:42;;;;;;;15.63;3.30;;;31.80;57.60;;;;;;5052484;28;20187;-60
2022/08/27 13:10:31;;;;;;;15.52;3.15;;;31.70;57.20;;;;;;5051328;28;20077;-62
2022/08/27 13:13:09;;;;;;;13.65;3.33;;;31.60;57.50;;;;;;5049299;28;20085;-60
2022/08/27 13:15:36;;;;;;;10.38;2.78;;;31.60;57.90;;;;;;5066208;28;20073;-60